Time;durP1;ratioP1;P1;durP2;ratioP2;P2;SDS_P1;SDS_P2;PMS_P1;PMS_P2;Temp;Humidity;BMP_temperature;BMP_pressure;BME280_temperature;BME280_humidity;BME280_pressure;Samples;Min_cycle;Max_cycle;Signal;HPM_P1;HPM_P2
2023/09/16 00:01:35;;;;;;;0.30;0.30;;;;;;;;;;5073658;28;20300;-81
2023/09/16 00:04:04;;;;;;;4.33;1.13;;;;;;;;;;5073392;28;20198;-81
2023/09/16 00:06:32;;;;;;;0.97;0.83;;;;;;;;;;5073233;28;20213;-81
2023/09/16 00:09:01;;;;;;;0.40;0.40;;;;;;;;;;5073185;28;20241;-81
2023/09/16 00:11:30;;;;;;;0.80;0.80;;;;;;;;;;5073034;28;20243;-81
2023/09/16 00:13:59;;;;;;;0.40;0.40;;;;;;;;;;5073063;28;20213;-81
2023/09/16 00:16:29;;;;;;;1.13;1.13;;;;;;;;;;5073295;28;20206;-81
2023/09/16 00:18:59;;;;;;;0.47;0.47;;;;;;;;;;5073319;28;20206;-81
2023/09/16 00:21:27;;;;;;;0.50;0.50;;;;;;;;;;5073743;28;20205;-81
2023/09/16 00:23:56;;;;;;;0.30;0.30;;;;;;;;;;5072991;28;20201;-81
2023/09/16 00:26:24;;;;;;;0.50;0.50;;;;;;;;;;5072610;28;20213;-80
2023/09/16 00:28:53;;;;;;;0.43;0.43;;;;;;;;;;5073007;28;20208;-81
2023/09/16 00:31:21;;;;;;;0.40;0.40;;;;;;;;;;5073262;28;20202;-81
2023/09/16 00:33:50;;;;;;;0.47;0.47;;;;;;;;;;5072851;28;20225;-81
2023/09/16 00:36:20;;;;;;;1.17;1.17;;;;;;;;;;5072485;28;20269;-82
2023/09/16 00:38:48;;;;;;;0.37;0.37;;;;;;;;;;5073396;28;20197;-81
2023/09/16 00:41:17;;;;;;;1.57;1.57;;;;;;;;;;5072830;28;20296;-81
2023/09/16 00:43:45;;;;;;;1.10;1.00;;;;;;;;;;5072913;28;20205;-81
2023/09/16 00:46:14;;;;;;;0.40;0.40;;;;;;;;;;5072916;28;20292;-81
2023/09/16 00:48:45;;;;;;;0.40;0.40;;;;;;;;;;5072773;28;20209;-81
2023/09/16 00:51:14;;;;;;;0.30;0.30;;;;;;;;;;5073086;28;20227;-81
2023/09/16 00:53:46;;;;;;;0.40;0.40;;;;;;;;;;5072758;28;20205;-81
2023/09/16 00:56:14;;;;;;;0.90;0.90;;;;;;;;;;5072732;28;20220;-81
2023/09/16 00:58:43;;;;;;;0.40;0.40;;;;;;;;;;5072894;28;20247;-81
2023/09/16 01:01:12;;;;;;;0.73;0.73;;;;;;;;;;5072909;28;20198;-81
2023/09/16 01:03:42;;;;;;;0.70;0.70;;;;;;;;;;5072906;28;20200;-80
2023/09/16 01:06:10;;;;;;;0.90;0.90;;;;;;;;;;5072935;28;20197;-80
2023/09/16 01:08:39;;;;;;;0.37;0.37;;;;;;;;;;5072342;28;20295;-81
2023/09/16 01:11:09;;;;;;;0.30;0.30;;;;;;;;;;5072701;28;20230;-81
2023/09/16 01:13:38;;;;;;;0.37;0.37;;;;;;;;;;5072218;28;20212;-81
2023/09/16 01:16:10;;;;;;;0.37;0.37;;;;;;;;;;5072803;28;20197;-81
2023/09/16 01:18:42;;;;;;;0.40;0.40;;;;;;;;;;5072508;28;20212;-81
2023/09/16 01:21:12;;;;;;;0.33;0.33;;;;;;;;;;5072467;28;20204;-81
2023/09/16 01:23:40;;;;;;;0.40;0.40;;;;;;;;;;5072402;28;20205;-81
2023/09/16 01:26:10;;;;;;;4.30;2.77;;;;;;;;;;5072543;28;20205;-81
2023/09/16 01:28:39;;;;;;;0.40;0.40;;;;;;;;;;5074290;28;20226;-81
2023/09/16 01:31:08;;;;;;;0.50;0.50;;;;;;;;;;5076082;28;20234;-81
2023/09/16 01:33:41;;;;;;;0.30;0.30;;;;;;;;;;5076521;28;20197;-81
2023/09/16 01:36:13;;;;;;;0.40;0.40;;;;;;;;;;5075345;28;20266;-81
2023/09/16 01:38:45;;;;;;;3.07;1.07;;;;;;;;;;5076326;28;20225;-81
2023/09/16 01:41:17;;;;;;;0.30;0.30;;;;;;;;;;5075764;28;20198;-81
2023/09/16 01:43:46;;;;;;;0.87;0.87;;;;;;;;;;5076434;28;20220;-81
2023/09/16 01:46:15;;;;;;;0.50;0.50;;;;;;;;;;5076207;28;20303;-81
2023/09/16 01:48:44;;;;;;;0.40;0.40;;;;;;;;;;5075719;28;20330;-81
2023/09/16 01:51:15;;;;;;;0.40;0.40;;;;;;;;;;5075592;28;20295;-81
2023/09/16 01:53:43;;;;;;;1.03;1.03;;;;;;;;;;5075678;28;20205;-80
2023/09/16 01:56:12;;;;;;;0.80;0.80;;;;;;;;;;5075710;28;20255;-81
2023/09/16 01:58:42;;;;;;;0.73;0.73;;;;;;;;;;5075425;28;20201;-81
2023/09/16 02:01:11;;;;;;;0.40;0.40;;;;;;;;;;5075597;28;20281;-81
2023/09/16 02:03:39;;;;;;;0.40;0.40;;;;;;;;;;5075422;28;20196;-81
2023/09/16 02:06:08;;;;;;;0.73;0.73;;;;;;;;;;5075725;28;20213;-81
2023/09/16 02:08:36;;;;;;;0.40;0.40;;;;;;;;;;5075433;28;20221;-81
2023/09/16 02:11:05;;;;;;;0.30;0.30;;;;;;;;;;5075204;28;20190;-81
2023/09/16 02:13:35;;;;;;;0.40;0.40;;;;;;;;;;5075865;28;20246;-81
2023/09/16 02:16:05;;;;;;;0.63;0.63;;;;;;;;;;5075553;28;20204;-82
2023/09/16 02:18:34;;;;;;;0.37;0.37;;;;;;;;;;5076067;28;20253;-81
2023/09/16 02:21:03;;;;;;;1.50;1.40;;;;;;;;;;5075555;28;20193;-81
2023/09/16 02:23:31;;;;;;;0.40;0.40;;;;;;;;;;5075738;28;20206;-81
2023/09/16 02:26:01;;;;;;;2.97;2.27;;;;;;;;;;5075045;28;20201;-81
2023/09/16 02:28:30;;;;;;;0.40;0.40;;;;;;;;;;5074982;28;20221;-81
2023/09/16 02:30:59;;;;;;;1.67;1.57;;;;;;;;;;5075339;28;20206;-81
2023/09/16 02:33:29;;;;;;;1.73;1.67;;;;;;;;;;5075671;28;20229;-81
2023/09/16 02:35:57;;;;;;;0.60;0.60;;;;;;;;;;5075444;28;20219;-83
2023/09/16 02:38:25;;;;;;;0.40;0.40;;;;;;;;;;5074425;28;20232;-84
2023/09/16 02:40:54;;;;;;;0.50;0.50;;;;;;;;;;5073227;28;20206;-84
2023/09/16 02:43:22;;;;;;;1.13;1.13;;;;;;;;;;5074366;28;20209;-84
2023/09/16 02:45:51;;;;;;;3.13;0.97;;;;;;;;;;5074348;28;20211;-84
2023/09/16 02:48:19;;;;;;;1.07;1.07;;;;;;;;;;5074324;28;20210;-84
2023/09/16 02:50:49;;;;;;;0.50;0.50;;;;;;;;;;5074407;28;20194;-84
2023/09/16 02:53:18;;;;;;;0.50;0.50;;;;;;;;;;5074236;28;20217;-84
2023/09/16 02:55:46;;;;;;;0.40;0.40;;;;;;;;;;5074251;28;20208;-84
2023/09/16 02:58:15;;;;;;;0.53;0.53;;;;;;;;;;5074598;28;20205;-84
2023/09/16 03:00:46;;;;;;;0.57;0.57;;;;;;;;;;5074305;28;20221;-83
2023/09/16 03:03:15;;;;;;;0.40;0.40;;;;;;;;;;5073986;28;20231;-84
2023/09/16 03:05:45;;;;;;;0.67;0.67;;;;;;;;;;5074214;28;20212;-84
2023/09/16 03:08:15;;;;;;;0.90;0.90;;;;;;;;;;5074175;28;20225;-84
2023/09/16 03:10:45;;;;;;;0.40;0.40;;;;;;;;;;5074247;28;20259;-84
2023/09/16 03:13:13;;;;;;;0.43;0.43;;;;;;;;;;5073677;28;20330;-84
2023/09/16 03:15:45;;;;;;;1.43;1.43;;;;;;;;;;5074011;28;20284;-84
2023/09/16 03:18:14;;;;;;;0.40;0.40;;;;;;;;;;5074070;28;20201;-84
2023/09/16 03:20:42;;;;;;;0.40;0.40;;;;;;;;;;5073937;28;20194;-84
2023/09/16 03:23:12;;;;;;;0.90;0.90;;;;;;;;;;5073171;28;20201;-84
2023/09/16 03:25:42;;;;;;;1.50;1.50;;;;;;;;;;5073975;28;20270;-84
2023/09/16 03:28:10;;;;;;;2.67;2.13;;;;;;;;;;5073844;28;20290;-84
2023/09/16 03:30:38;;;;;;;0.70;0.70;;;;;;;;;;5073368;28;20204;-85
2023/09/16 03:33:08;;;;;;;1.13;1.13;;;;;;;;;;5073097;28;20202;-84
2023/09/16 03:35:37;;;;;;;0.70;0.70;;;;;;;;;;5073647;28;20262;-84
2023/09/16 03:38:06;;;;;;;0.93;0.93;;;;;;;;;;5073397;28;20237;-84
2023/09/16 03:40:35;;;;;;;0.50;0.50;;;;;;;;;;5073177;28;20216;-84
2023/09/16 03:43:05;;;;;;;0.73;0.73;;;;;;;;;;5073601;28;20206;-84
2023/09/16 03:45:33;;;;;;;0.80;0.80;;;;;;;;;;5073606;28;20204;-84
2023/09/16 03:48:02;;;;;;;0.67;0.67;;;;;;;;;;5073826;28;20297;-81
2023/09/16 03:50:31;;;;;;;0.30;0.30;;;;;;;;;;5073051;28;20248;-81
2023/09/16 03:53:00;;;;;;;0.40;0.40;;;;;;;;;;5073539;28;20215;-81
2023/09/16 03:55:34;;;;;;;0.90;0.90;;;;;;;;;;5073787;28;20263;-84
2023/09/16 03:58:02;;;;;;;0.40;0.40;;;;;;;;;;5072856;28;20205;-84
2023/09/16 04:00:32;;;;;;;0.60;0.60;;;;;;;;;;5072934;28;20253;-84
2023/09/16 04:03:00;;;;;;;0.40;0.40;;;;;;;;;;5073484;28;20210;-83
2023/09/16 04:05:29;;;;;;;0.40;0.40;;;;;;;;;;5073173;28;20206;-84
2023/09/16 04:07:57;;;;;;;0.30;0.30;;;;;;;;;;5073313;28;20222;-84
2023/09/16 04:10:26;;;;;;;0.90;0.90;;;;;;;;;;5073166;28;20202;-84
2023/09/16 04:12:54;;;;;;;0.40;0.40;;;;;;;;;;5073396;28;20202;-84
2023/09/16 04:15:23;;;;;;;0.70;0.70;;;;;;;;;;5072429;28;20193;-84
2023/09/16 04:17:52;;;;;;;0.40;0.40;;;;;;;;;;5072400;28;20192;-84
2023/09/16 04:20:24;;;;;;;0.33;0.33;;;;;;;;;;5072621;28;20206;-83
2023/09/16 04:22:52;;;;;;;1.13;0.67;;;;;;;;;;5072771;28;20198;-84
2023/09/16 04:25:22;;;;;;;0.33;0.33;;;;;;;;;;5072627;28;20204;-84
2023/09/16 04:27:50;;;;;;;0.30;0.30;;;;;;;;;;5073132;28;20204;-84
2023/09/16 04:30:19;;;;;;;2.13;2.10;;;;;;;;;;5072510;28;20224;-84
2023/09/16 04:32:48;;;;;;;0.40;0.40;;;;;;;;;;5072543;28;20265;-84
2023/09/16 04:35:18;;;;;;;0.40;0.40;;;;;;;;;;5072381;28;20205;-84
2023/09/16 04:37:47;;;;;;;0.70;0.70;;;;;;;;;;5071811;28;20225;-84
2023/09/16 04:40:15;;;;;;;0.30;0.30;;;;;;;;;;5072826;28;20194;-84
2023/09/16 04:42:44;;;;;;;0.40;0.40;;;;;;;;;;5072670;28;20208;-84
2023/09/16 04:45:15;;;;;;;0.40;0.40;;;;;;;;;;5072035;28;20201;-84
2023/09/16 04:47:44;;;;;;;0.30;0.30;;;;;;;;;;5072770;28;20299;-84
2023/09/16 04:50:13;;;;;;;0.40;0.40;;;;;;;;;;5072512;28;20240;-84
2023/09/16 04:52:42;;;;;;;0.33;0.33;;;;;;;;;;5072242;28;20208;-84
2023/09/16 04:55:11;;;;;;;0.40;0.40;;;;;;;;;;5072242;28;20202;-84
2023/09/16 04:57:39;;;;;;;0.30;0.30;;;;;;;;;;5072795;28;20235;-85
2023/09/16 05:00:08;;;;;;;0.40;0.40;;;;;;;;;;5072640;28;20202;-84
2023/09/16 05:02:37;;;;;;;0.30;0.30;;;;;;;;;;5072707;28;20204;-84
2023/09/16 05:05:05;;;;;;;0.40;0.40;;;;;;;;;;5076640;28;20201;-84
2023/09/16 05:07:34;;;;;;;0.30;0.30;;;;;;;;;;5076590;28;20205;-84
2023/09/16 05:10:04;;;;;;;0.30;0.30;;;;;;;;;;5075980;28;20245;-85
2023/09/16 05:12:32;;;;;;;1.60;0.97;;;;;;;;;;5076015;28;20201;-84
2023/09/16 05:15:01;;;;;;;0.30;0.30;;;;;;;;;;5076474;28;20205;-84
2023/09/16 05:17:29;;;;;;;0.30;0.30;;;;;;;;;;5076595;28;20208;-84
2023/09/16 05:19:58;;;;;;;1.43;1.33;;;;;;;;;;5077075;28;20197;-85
2023/09/16 05:22:26;;;;;;;0.90;0.90;;;;;;;;;;5076846;28;20202;-84
2023/09/16 05:24:55;;;;;;;0.30;0.30;;;;;;;;;;5076543;28;20202;-84
2023/09/16 05:27:24;;;;;;;0.40;0.40;;;;;;;;;;5076513;28;20221;-84
2023/09/16 05:29:54;;;;;;;0.40;0.40;;;;;;;;;;5075626;28;20221;-84
2023/09/16 05:32:23;;;;;;;1.37;1.33;;;;;;;;;;5076022;28;20205;-84
2023/09/16 05:34:52;;;;;;;0.67;0.67;;;;;;;;;;5076385;28;20225;-84
2023/09/16 05:37:20;;;;;;;0.60;0.60;;;;;;;;;;5075496;28;20237;-85
2023/09/16 05:39:49;;;;;;;0.50;0.50;;;;;;;;;;5076445;28;20204;-84
2023/09/16 05:42:17;;;;;;;0.50;0.50;;;;;;;;;;5075865;28;20273;-84
2023/09/16 05:44:47;;;;;;;0.47;0.47;;;;;;;;;;5076704;28;20197;-84
2023/09/16 05:47:17;;;;;;;0.30;0.30;;;;;;;;;;5076401;28;20224;-84
2023/09/16 05:49:45;;;;;;;0.30;0.30;;;;;;;;;;5075512;28;20276;-85
2023/09/16 05:52:14;;;;;;;0.80;0.80;;;;;;;;;;5075766;28;20202;-84
2023/09/16 05:54:42;;;;;;;0.97;0.97;;;;;;;;;;5075365;28;20213;-84
2023/09/16 05:57:11;;;;;;;0.60;0.60;;;;;;;;;;5075491;28;20202;-84
2023/09/16 05:59:40;;;;;;;0.70;0.70;;;;;;;;;;5075290;28;20213;-84
2023/09/16 06:02:10;;;;;;;0.40;0.40;;;;;;;;;;5075631;28;20212;-85
2023/09/16 06:04:38;;;;;;;0.73;0.73;;;;;;;;;;5075086;28;20201;-84
2023/09/16 06:07:07;;;;;;;0.80;0.80;;;;;;;;;;5074823;28;20186;-84
2023/09/16 06:09:35;;;;;;;0.60;0.60;;;;;;;;;;5075277;28;20214;-84
2023/09/16 06:12:04;;;;;;;0.63;0.63;;;;;;;;;;5075173;28;20194;-84
2023/09/16 06:14:32;;;;;;;2.37;2.27;;;;;;;;;;5074807;28;20204;-84
2023/09/16 06:17:01;;;;;;;1.47;1.27;;;;;;;;;;5074485;28;20207;-85
2023/09/16 06:19:31;;;;;;;1.03;1.03;;;;;;;;;;5075336;28;20232;-85
2023/09/16 06:22:00;;;;;;;0.60;0.60;;;;;;;;;;5074972;28;20197;-86
2023/09/16 06:24:28;;;;;;;0.40;0.40;;;;;;;;;;5075085;28;20201;-84
2023/09/16 06:26:57;;;;;;;8.63;5.13;;;;;;;;;;5074862;28;20205;-84
2023/09/16 06:29:25;;;;;;;0.73;0.73;;;;;;;;;;5075452;28;20197;-85
2023/09/16 06:31:54;;;;;;;2.00;1.90;;;;;;;;;;5075127;28;20201;-85
2023/09/16 06:34:22;;;;;;;2.63;2.47;;;;;;;;;;5074755;28;20265;-84
2023/09/16 06:36:54;;;;;;;0.50;0.50;;;;;;;;;;5074836;28;20253;-85
2023/09/16 06:39:23;;;;;;;0.50;0.50;;;;;;;;;;5075636;28;20202;-85
2023/09/16 06:41:52;;;;;;;0.30;0.30;;;;;;;;;;5074661;28;20206;-85
2023/09/16 06:44:20;;;;;;;2.70;2.57;;;;;;;;;;5074634;28;20202;-84
2023/09/16 06:46:49;;;;;;;2.00;1.83;;;;;;;;;;5075241;28;20201;-85
2023/09/16 06:49:18;;;;;;;6.93;2.60;;;;;;;;;;5074568;28;20248;-85
2023/09/16 06:51:47;;;;;;;1.20;1.20;;;;;;;;;;5074693;28;20235;-85
2023/09/16 06:54:17;;;;;;;0.60;0.47;;;;;;;;;;5073839;28;20209;-85
2023/09/16 06:56:45;;;;;;;3.97;3.67;;;;;;;;;;5074575;28;20244;-85
2023/09/16 06:59:13;;;;;;;2.83;2.63;;;;;;;;;;5075041;28;20205;-85
2023/09/16 07:01:48;;;;;;;3.13;2.77;;;;;;;;;;5068982;28;20208;-84
2023/09/16 07:04:17;;;;;;;4.73;4.10;;;;;;;;;;5069334;28;20404;-84
2023/09/16 07:06:49;;;;;;;3.63;3.27;;;;;;;;;;5066118;28;20294;-84
2023/09/16 07:09:19;;;;;;;5.07;2.93;;;;;;;;;;5086867;28;20208;-84
2023/09/16 07:11:47;;;;;;;4.07;2.97;;;;;;;;;;5073034;28;20222;-85
2023/09/16 07:14:16;;;;;;;2.37;2.17;;;;;;;;;;5067936;28;20197;-85
2023/09/16 07:16:44;;;;;;;6.47;4.83;;;;;;;;;;5076596;28;20203;-85
2023/09/16 07:19:15;;;;;;;4.23;3.23;;;;;;;;;;5074673;28;20212;-84
2023/09/16 07:21:43;;;;;;;0.77;0.77;;;;;;;;;;5068955;28;20208;-84
2023/09/16 07:24:12;;;;;;;0.60;0.60;;;;;;;;;;5065831;28;20217;-84
2023/09/16 07:26:43;;;;;;;3.10;2.77;;;;;;;;;;5069024;28;20201;-85
2023/09/16 07:29:12;;;;;;;0.30;0.30;;;;;;;;;;5054810;28;20258;-84
2023/09/16 07:31:40;;;;;;;1.53;1.43;;;;;;;;;;5071673;28;20215;-85
2023/09/16 07:34:12;;;;;;;2.30;2.03;;;;;;;;;;5069207;28;20541;-85
2023/09/16 07:36:40;;;;;;;2.23;2.13;;;;;;;;;;5070807;28;20233;-84
2023/09/16 07:39:09;;;;;;;1.57;1.47;;;;;;;;;;5072653;28;20202;-85
2023/09/16 07:41:38;;;;;;;1.27;1.27;;;;;;;;;;5073113;28;20209;-85
2023/09/16 07:44:08;;;;;;;0.43;0.43;;;;;;;;;;5073006;28;20210;-85
2023/09/16 07:46:37;;;;;;;1.07;1.07;;;;;;;;;;5072599;28;20283;-85
2023/09/16 07:49:06;;;;;;;1.83;1.73;;;;;;;;;;5072188;28;20205;-85
2023/09/16 07:51:34;;;;;;;3.17;2.97;;;;;;;;;;5073177;28;20219;-85
2023/09/16 07:54:03;;;;;;;1.13;1.13;;;;;;;;;;5073511;28;20281;-85
2023/09/16 07:56:31;;;;;;;3.03;2.83;;;;;;;;;;5070752;28;20208;-85
2023/09/16 07:59:00;;;;;;;2.33;2.13;;;;;;;;;;5053504;28;20296;-85
2023/09/16 08:01:30;;;;;;;1.53;1.43;;;;;;;;;;5053647;28;20205;-85
2023/09/16 08:03:58;;;;;;;2.17;0.80;;;;;;;;;;5055113;28;20215;-85
2023/09/16 08:06:27;;;;;;;2.50;2.30;;;;;;;;;;5060909;28;20255;-84
2023/09/16 08:08:55;;;;;;;8.97;5.70;;;;;;;;;;5053143;28;20197;-85
2023/09/16 08:11:24;;;;;;;4.13;2.37;;;;;;;;;;5052623;28;20224;-85
2023/09/16 08:13:52;;;;;;;2.67;2.50;;;;;;;;;;5053721;28;20210;-85
2023/09/16 08:16:21;;;;;;;2.03;1.93;;;;;;;;;;5061891;28;20202;-85
2023/09/16 08:18:51;;;;;;;5.57;4.97;;;;;;;;;;5072025;28;20321;-85
2023/09/16 08:21:20;;;;;;;8.17;6.97;;;;;;;;;;5072591;28;20202;-85
2023/09/16 08:23:48;;;;;;;1.97;1.87;;;;;;;;;;5072811;28;20199;-85
2023/09/16 08:26:17;;;;;;;5.13;4.63;;;;;;;;;;5069985;28;20209;-85
2023/09/16 08:28:48;;;;;;;2.13;2.03;;;;;;;;;;5055223;28;20206;-86
2023/09/16 08:31:17;;;;;;;6.17;4.83;;;;;;;;;;5066457;28;20222;-85
2023/09/16 08:33:48;;;;;;;2.00;1.80;;;;;;;;;;5060429;28;20223;-87
2023/09/16 08:36:18;;;;;;;1.17;1.17;;;;;;;;;;5067608;28;20210;-88
2023/09/16 08:38:46;;;;;;;10.40;6.93;;;;;;;;;;5067353;28;20236;-88
2023/09/16 08:41:22;;;;;;;3.97;3.33;;;;;;;;;;5072030;28;20204;-85
2023/09/16 08:43:53;;;;;;;1.23;1.13;;;;;;;;;;5070385;28;20207;-88
2023/09/16 08:46:23;;;;;;;6.40;5.80;;;;;;;;;;5058887;28;20281;-87
2023/09/16 08:48:54;;;;;;;3.07;2.37;;;;;;;;;;5056443;28;20217;-86
2023/09/16 08:51:24;;;;;;;3.20;2.87;;;;;;;;;;5051241;28;20230;-85
2023/09/16 08:53:53;;;;;;;11.43;5.60;;;;;;;;;;5050007;28;20215;-86
2023/09/16 08:56:22;;;;;;;5.27;4.77;;;;;;;;;;5072364;28;20204;-87
2023/09/16 08:58:50;;;;;;;5.67;5.10;;;;;;;;;;5054935;28;20239;-86
2023/09/16 09:01:19;;;;;;;3.23;2.53;;;;;;;;;;5064167;28;20204;-85
2023/09/16 09:03:48;;;;;;;0.37;0.37;;;;;;;;;;5056339;28;20209;-85
2023/09/16 09:06:17;;;;;;;4.53;2.03;;;;;;;;;;5061834;28;20215;-85
2023/09/16 09:09:03;;;;;;;4.63;4.23;;;;;;;;;;5056631;28;20200;-85
2023/09/16 09:11:32;;;;;;;6.60;5.77;;;;;;;;;;5068443;28;20281;-86
2023/09/16 09:14:00;;;;;;;12.03;5.03;;;;;;;;;;5072573;28;20198;-86
2023/09/16 09:16:32;;;;;;;7.30;3.50;;;;;;;;;;5068228;28;20200;-86
2023/09/16 09:19:01;;;;;;;8.87;6.83;;;;;;;;;;5071338;28;20296;-86
2023/09/16 09:21:29;;;;;;;9.27;6.10;;;;;;;;;;5071971;28;20201;-85
2023/09/16 09:23:58;;;;;;;2.70;2.50;;;;;;;;;;5072537;28;20201;-86
2023/09/16 09:26:28;;;;;;;7.07;4.30;;;;;;;;;;5071716;28;20542;-86
2023/09/16 09:28:59;;;;;;;6.13;3.60;;;;;;;;;;5072512;28;20212;-86
2023/09/16 09:31:28;;;;;;;2.70;2.20;;;;;;;;;;5071987;28;20225;-86
2023/09/16 09:33:56;;;;;;;1.80;1.70;;;;;;;;;;5070722;28;20194;-86
2023/09/16 09:36:27;;;;;;;2.40;2.17;;;;;;;;;;5072503;28;20229;-85
2023/09/16 09:38:58;;;;;;;2.90;2.57;;;;;;;;;;5071387;28;20239;-86
2023/09/16 09:41:28;;;;;;;3.40;3.03;;;;;;;;;;5071765;28;20479;-86
2023/09/16 09:43:58;;;;;;;0.50;0.50;;;;;;;;;;5071237;28;20218;-86
2023/09/16 09:46:26;;;;;;;4.53;2.73;;;;;;;;;;5071875;28;20206;-86
2023/09/16 09:48:58;;;;;;;2.60;2.37;;;;;;;;;;5069474;28;20198;-86
2023/09/16 09:51:27;;;;;;;2.90;2.27;;;;;;;;;;5066398;28;20222;-84
2023/09/16 09:53:59;;;;;;;9.57;3.30;;;;;;;;;;5057122;28;20214;-84
2023/09/16 09:56:29;;;;;;;1.50;1.40;;;;;;;;;;5057894;28;20215;-84
2023/09/16 09:58:59;;;;;;;4.03;2.53;;;;;;;;;;5077432;28;20197;-84
2023/09/16 10:01:31;;;;;;;3.10;1.77;;;;;;;;;;5067693;28;20201;-84
2023/09/16 10:04:02;;;;;;;4.83;2.87;;;;;;;;;;5076678;28;20211;-84
2023/09/16 10:06:31;;;;;;;2.27;1.93;;;;;;;;;;5079277;28;20195;-84
2023/09/16 10:09:00;;;;;;;2.17;2.00;;;;;;;;;;5058150;28;21763;-84
2023/09/16 10:11:32;;;;;;;6.23;2.67;;;;;;;;;;5075632;28;20202;-86
2023/09/16 10:14:01;;;;;;;2.60;2.37;;;;;;;;;;5073433;28;20288;-81
2023/09/16 10:16:30;;;;;;;4.90;1.77;;;;;;;;;;5066787;28;20290;-82
2023/09/16 10:19:00;;;;;;;3.67;3.30;;;;;;;;;;5075231;28;20208;-85
2023/09/16 10:21:28;;;;;;;2.40;2.27;;;;;;;;;;5072597;28;20256;-85
2023/09/16 10:23:57;;;;;;;3.20;2.50;;;;;;;;;;5074168;28;20198;-84
2023/09/16 10:26:32;;;;;;;2.50;1.50;;;;;;;;;;5074890;28;20201;-83
2023/09/16 10:29:01;;;;;;;3.50;2.23;;;;;;;;;;5071512;28;20223;-84
2023/09/16 10:31:30;;;;;;;1.23;1.23;;;;;;;;;;5071908;28;20212;-84
2023/09/16 10:33:59;;;;;;;2.40;1.87;;;;;;;;;;5071178;28;20209;-83
2023/09/16 10:36:28;;;;;;;5.27;4.50;;;;;;;;;;5058902;28;20226;-84
2023/09/16 10:38:56;;;;;;;2.87;2.67;;;;;;;;;;5059711;28;20251;-84
2023/09/16 10:41:26;;;;;;;2.97;2.57;;;;;;;;;;5065015;28;20214;-84
2023/09/16 10:43:58;;;;;;;4.93;2.50;;;;;;;;;;5079088;28;20291;-84
2023/09/16 10:46:27;;;;;;;7.47;3.70;;;;;;;;;;5068921;28;20208;-84
2023/09/16 10:48:59;;;;;;;2.67;1.80;;;;;;;;;;5080255;28;20205;-84
2023/09/16 10:51:30;;;;;;;6.03;3.90;;;;;;;;;;5094979;28;20206;-84
2023/09/16 10:54:06;;;;;;;5.37;0.77;;;;;;;;;;5068059;28;20226;-83
2023/09/16 10:56:38;;;;;;;3.73;2.83;;;;;;;;;;5070691;28;20211;-86
2023/09/16 10:59:10;;;;;;;0.77;0.77;;;;;;;;;;5069517;28;20225;-84
2023/09/16 11:01:40;;;;;;;5.53;3.30;;;;;;;;;;5076747;28;20434;-84
2023/09/16 11:04:14;;;;;;;1.63;1.10;;;;;;;;;;5070529;28;20288;-85
2023/09/16 11:06:47;;;;;;;4.50;3.70;;;;;;;;;;5073544;28;20211;-85
2023/09/16 11:09:20;;;;;;;5.07;3.97;;;;;;;;;;5075076;28;20302;-85
2023/09/16 11:11:49;;;;;;;2.70;2.60;;;;;;;;;;5074170;28;20206;-86
2023/09/16 11:14:19;;;;;;;1.63;1.53;;;;;;;;;;5071601;28;20203;-82
2023/09/16 11:16:49;;;;;;;2.87;2.23;;;;;;;;;;5073725;28;20507;-82
2023/09/16 11:19:20;;;;;;;2.13;2.00;;;;;;;;;;5074458;28;20208;-82
2023/09/16 11:21:50;;;;;;;1.57;1.43;;;;;;;;;;5068002;28;20205;-82
2023/09/16 11:24:19;;;;;;;3.67;2.00;;;;;;;;;;5073922;28;20295;-82
2023/09/16 11:26:48;;;;;;;1.13;1.07;;;;;;;;;;5073508;28;20205;-83
2023/09/16 11:29:19;;;;;;;2.47;2.20;;;;;;;;;;5073826;28;20475;-82
2023/09/16 11:31:48;;;;;;;9.40;2.33;;;;;;;;;;5073396;28;20204;-82
2023/09/16 11:34:18;;;;;;;5.00;2.60;;;;;;;;;;5071890;28;20230;-82
2023/09/16 11:36:50;;;;;;;2.20;2.00;;;;;;;;;;5066562;28;20238;-82
2023/09/16 11:39:18;;;;;;;1.20;1.10;;;;;;;;;;5069263;28;20236;-82
2023/09/16 11:41:48;;;;;;;2.77;2.47;;;;;;;;;;5073127;28;20208;-82
2023/09/16 11:44:16;;;;;;;1.03;1.00;;;;;;;;;;5072960;28;20220;-82
2023/09/16 11:46:48;;;;;;;1.50;1.20;;;;;;;;;;5055303;28;20229;-82
2023/09/16 11:49:16;;;;;;;3.20;2.53;;;;;;;;;;5061239;28;20289;-82
2023/09/16 11:51:50;;;;;;;2.23;2.03;;;;;;;;;;5073289;28;20210;-82
2023/09/16 11:54:19;;;;;;;2.13;1.57;;;;;;;;;;5072937;28;20217;-82
2023/09/16 11:56:48;;;;;;;1.53;1.43;;;;;;;;;;5072985;28;20210;-82
2023/09/16 11:59:17;;;;;;;0.30;0.30;;;;;;;;;;5073243;28;20248;-82
2023/09/16 12:01:47;;;;;;;2.47;1.30;;;;;;;;;;5072918;28;20213;-82
2023/09/16 12:04:17;;;;;;;3.00;1.33;;;;;;;;;;5071339;28;20241;-82
2023/09/16 12:06:46;;;;;;;0.63;0.63;;;;;;;;;;5070814;28;20222;-85
2023/09/16 12:09:17;;;;;;;1.07;0.97;;;;;;;;;;5072296;28;20206;-84
2023/09/16 12:11:49;;;;;;;5.73;2.67;;;;;;;;;;5072648;28;20237;-82
2023/09/16 12:14:19;;;;;;;1.13;1.13;;;;;;;;;;5071190;28;20230;-82
2023/09/16 12:16:53;;;;;;;0.63;0.63;;;;;;;;;;5071226;28;20307;-84
2023/09/16 12:19:22;;;;;;;2.20;2.00;;;;;;;;;;5072388;28;20204;-85
2023/09/16 12:21:55;;;;;;;0.97;0.93;;;;;;;;;;5073536;28;20526;-85
2023/09/16 12:24:24;;;;;;;6.33;1.27;;;;;;;;;;5073235;28;20228;-85
2023/09/16 12:26:53;;;;;;;2.90;1.60;;;;;;;;;;5072892;28;20194;-85
2023/09/16 12:29:21;;;;;;;0.20;0.20;;;;;;;;;;5066194;28;20199;-84
2023/09/16 12:31:50;;;;;;;3.63;1.17;;;;;;;;;;5063247;28;20204;-85
2023/09/16 12:34:20;;;;;;;0.67;0.67;;;;;;;;;;5070388;28;20295;-85
2023/09/16 12:36:53;;;;;;;0.20;0.20;;;;;;;;;;5066237;28;20455;-85
2023/09/16 12:39:22;;;;;;;3.50;1.47;;;;;;;;;;5063573;28;20251;-85
2023/09/16 12:41:51;;;;;;;4.47;1.33;;;;;;;;;;5074896;28;20210;-85
2023/09/16 12:44:40;;;;;;;1.10;1.00;;;;;;;;;;5068269;28;20296;-85
2023/09/16 12:47:09;;;;;;;0.60;0.60;;;;;;;;;;5075730;28;20200;-84
2023/09/16 12:49:40;;;;;;;2.20;1.47;;;;;;;;;;5068142;28;20205;-82
2023/09/16 12:52:09;;;;;;;0.80;0.80;;;;;;;;;;5057322;28;20199;-81
2023/09/16 12:54:38;;;;;;;1.73;1.50;;;;;;;;;;5066911;28;20216;-84
2023/09/16 12:57:11;;;;;;;0.40;0.40;;;;;;;;;;5068224;28;20194;-84
2023/09/16 12:59:44;;;;;;;0.40;0.40;;;;;;;;;;5070927;28;20207;-85
2023/09/16 13:02:13;;;;;;;0.97;0.70;;;;;;;;;;5070125;28;20203;-85
2023/09/16 13:04:43;;;;;;;0.77;0.77;;;;;;;;;;5068343;28;20244;-84
2023/09/16 13:07:11;;;;;;;0.80;0.80;;;;;;;;;;5068289;28;20226;-84
2023/09/16 13:09:40;;;;;;;3.63;1.73;;;;;;;;;;5068131;28;20218;-84
2023/09/16 13:12:08;;;;;;;3.17;2.03;;;;;;;;;;5057522;28;20207;-84
2023/09/16 13:14:38;;;;;;;2.23;1.23;;;;;;;;;;5065474;28;20260;-84
2023/09/16 13:17:07;;;;;;;2.03;0.83;;;;;;;;;;5064049;28;20206;-83
2023/09/16 13:19:39;;;;;;;5.40;2.53;;;;;;;;;;5065410;28;20211;-85
2023/09/16 13:22:12;;;;;;;2.10;1.90;;;;;;;;;;5068747;28;20227;-85
2023/09/16 13:24:44;;;;;;;0.20;0.20;;;;;;;;;;5067294;28;20210;-84
2023/09/16 13:27:17;;;;;;;1.63;1.50;;;;;;;;;;5083838;28;20238;-84
2023/09/16 13:29:45;;;;;;;3.57;1.53;;;;;;;;;;5073181;28;20215;-84
2023/09/16 13:32:14;;;;;;;2.57;2.37;;;;;;;;;;5072867;28;20200;-84
2023/09/16 13:34:44;;;;;;;0.80;0.80;;;;;;;;;;5074045;28;20313;-84
2023/09/16 13:37:14;;;;;;;1.60;1.07;;;;;;;;;;5073680;28;20218;-84
2023/09/16 13:39:43;;;;;;;1.60;0.90;;;;;;;;;;5071493;28;20235;-84
2023/09/16 13:42:12;;;;;;;5.63;1.90;;;;;;;;;;5069769;28;20246;-84
2023/09/16 13:44:44;;;;;;;1.30;0.63;;;;;;;;;;5068902;28;20334;-84
2023/09/16 13:47:12;;;;;;;1.33;1.17;;;;;;;;;;5061435;28;20280;-84
2023/09/16 13:49:42;;;;;;;2.07;1.63;;;;;;;;;;5069801;28;20253;-84
2023/09/16 13:52:10;;;;;;;1.03;1.03;;;;;;;;;;5072229;28;20212;-84
2023/09/16 13:54:40;;;;;;;1.23;1.13;;;;;;;;;;5074211;28;20216;-84
2023/09/16 13:57:09;;;;;;;0.47;0.47;;;;;;;;;;5078191;28;20215;-84
2023/09/16 13:59:38;;;;;;;0.93;0.77;;;;;;;;;;5071839;28;20228;-84
2023/09/16 14:02:06;;;;;;;2.60;1.43;;;;;;;;;;5086561;28;20255;-84
2023/09/16 14:04:36;;;;;;;1.37;1.23;;;;;;;;;;5093371;28;20202;-84
2023/09/16 14:07:05;;;;;;;2.40;1.93;;;;;;;;;;5080318;28;20207;-84
2023/09/16 14:09:33;;;;;;;2.70;2.20;;;;;;;;;;5080341;28;20201;-84
2023/09/16 14:12:03;;;;;;;2.33;2.03;;;;;;;;;;5062303;28;20205;-85
2023/09/16 14:14:31;;;;;;;2.57;2.23;;;;;;;;;;5065433;28;21646;-86
2023/09/16 14:17:00;;;;;;;1.50;1.40;;;;;;;;;;5066518;28;20207;-85
2023/09/16 14:19:29;;;;;;;1.83;1.70;;;;;;;;;;5067928;28;20211;-86
2023/09/16 14:22:00;;;;;;;1.00;0.60;;;;;;;;;;5069442;28;20213;-84
2023/09/16 14:24:29;;;;;;;0.63;0.50;;;;;;;;;;5075801;28;20208;-84
2023/09/16 14:26:57;;;;;;;1.33;0.90;;;;;;;;;;5075374;28;20196;-84
2023/09/16 14:29:31;;;;;;;1.03;1.00;;;;;;;;;;5076044;28;20200;-84
2023/09/16 14:31:59;;;;;;;2.93;1.23;;;;;;;;;;5075059;28;20200;-81
2023/09/16 14:34:28;;;;;;;1.37;1.27;;;;;;;;;;5074660;28;20308;-81
2023/09/16 14:36:56;;;;;;;1.27;1.00;;;;;;;;;;5074467;28;20223;-81
2023/09/16 14:39:26;;;;;;;0.60;0.60;;;;;;;;;;5074445;28;20235;-82
2023/09/16 14:41:54;;;;;;;1.30;0.87;;;;;;;;;;5074614;28;20198;-82
2023/09/16 14:44:23;;;;;;;0.80;0.80;;;;;;;;;;5074753;28;20294;-82
2023/09/16 14:46:55;;;;;;;0.93;0.77;;;;;;;;;;5074536;28;20234;-82
2023/09/16 14:49:23;;;;;;;1.07;0.97;;;;;;;;;;5074137;28;20194;-81
2023/09/16 14:51:52;;;;;;;1.67;1.37;;;;;;;;;;5074018;28;20215;-81
2023/09/16 14:54:21;;;;;;;1.63;0.73;;;;;;;;;;5074142;28;20220;-82
2023/09/16 14:56:49;;;;;;;1.37;1.27;;;;;;;;;;5074190;28;20414;-81